sensor_id;sensor_type;location;lat;lon;timestamp;P1;durP1;ratioP1;P2;durP2;ratioP2
55270;SDS011;41132;47.162;9.470;2022-08-21T00:00:37;8.00;;;1.25;;
55270;SDS011;41132;47.162;9.470;2022-08-21T00:03:04;4.38;;;1.35;;
55270;SDS011;41132;47.162;9.470;2022-08-21T00:05:33;3.97;;;1.40;;
55270;SDS011;41132;47.162;9.470;2022-08-21T00:08:05;2.78;;;1.10;;
55270;SDS011;41132;47.162;9.470;2022-08-21T00:10:31;7.65;;;1.42;;
55270;SDS011;41132;47.162;9.470;2022-08-21T00:12:56;2.92;;;1.10;;
55270;SDS011;41132;47.162;9.470;2022-08-21T00:15:24;2.90;;;1.15;;
55270;SDS011;41132;47.162;9.470;2022-08-21T00:17:51;4.00;;;1.10;;
55270;SDS011;41132;47.162;9.470;2022-08-21T00:20:19;3.75;;;1.30;;
55270;SDS011;41132;47.162;9.470;2022-08-21T00:22:44;3.63;;;1.35;;
55270;SDS011;41132;47.162;9.470;2022-08-21T00:25:10;3.38;;;1.38;;
55270;SDS011;41132;47.162;9.470;2022-08-21T00:27:37;4.38;;;1.55;;
55270;SDS011;41132;47.162;9.470;2022-08-21T00:30:03;5.60;;;1.67;;
55270;SDS011;41132;47.162;9.470;2022-08-21T00:32:31;7.63;;;1.45;;
55270;SDS011;41132;47.162;9.470;2022-08-21T00:34:56;3.20;;;1.40;;
55270;SDS011;41132;47.162;9.470;2022-08-21T00:37:22;2.97;;;1.40;;
55270;SDS011;41132;47.162;9.470;2022-08-21T00:39:47;4.03;;;1.40;;
55270;SDS011;41132;47.162;9.470;2022-08-21T00:42:13;3.20;;;1.42;;
55270;SDS011;41132;47.162;9.470;2022-08-21T00:44:41;3.78;;;1.42;;
55270;SDS011;41132;47.162;9.470;2022-08-21T00:47:10;4.53;;;1.67;;
55270;SDS011;41132;47.162;9.470;2022-08-21T00:49:36;3.92;;;1.10;;
55270;SDS011;41132;47.162;9.470;2022-08-21T00:52:03;5.38;;;1.83;;
55270;SDS011;41132;47.162;9.470;2022-08-21T00:54:32;7.32;;;1.50;;
55270;SDS011;41132;47.162;9.470;2022-08-21T00:57:07;3.15;;;1.40;;
55270;SDS011;41132;47.162;9.470;2022-08-21T00:59:48;4.82;;;1.35;;
55270;SDS011;41132;47.162;9.470;2022-08-21T01:02:16;2.60;;;1.40;;
55270;SDS011;41132;47.162;9.470;2022-08-21T01:04:45;5.10;;;1.63;;
55270;SDS011;41132;47.162;9.470;2022-08-21T01:07:11;3.60;;;1.15;;
55270;SDS011;41132;47.162;9.470;2022-08-21T01:09:37;3.42;;;1.27;;
55270;SDS011;41132;47.162;9.470;2022-08-21T01:12:05;5.38;;;1.45;;
55270;SDS011;41132;47.162;9.470;2022-08-21T01:14:31;3.75;;;1.30;;
55270;SDS011;41132;47.162;9.470;2022-08-21T01:16:57;5.07;;;1.25;;
55270;SDS011;41132;47.162;9.470;2022-08-21T01:19:26;4.32;;;1.40;;
55270;SDS011;41132;47.162;9.470;2022-08-21T01:21:51;2.50;;;1.13;;
55270;SDS011;41132;47.162;9.470;2022-08-21T01:24:18;3.10;;;1.15;;
55270;SDS011;41132;47.162;9.470;2022-08-21T01:26:44;3.13;;;1.38;;
55270;SDS011;41132;47.162;9.470;2022-08-21T01:31:55;4.68;;;1.10;;
55270;SDS011;41132;47.162;9.470;2022-08-21T01:34:21;3.60;;;1.10;;
55270;SDS011;41132;47.162;9.470;2022-08-21T01:36:47;4.45;;;1.10;;
55270;SDS011;41132;47.162;9.470;2022-08-21T01:39:14;2.80;;;1.27;;
55270;SDS011;41132;47.162;9.470;2022-08-21T01:41:40;3.63;;;1.23;;
55270;SDS011;41132;47.162;9.470;2022-08-21T01:44:06;2.58;;;1.30;;
55270;SDS011;41132;47.162;9.470;2022-08-21T01:46:32;5.53;;;1.13;;
55270;SDS011;41132;47.162;9.470;2022-08-21T01:48:57;7.05;;;1.30;;
55270;SDS011;41132;47.162;9.470;2022-08-21T01:51:23;3.47;;;1.50;;
55270;SDS011;41132;47.162;9.470;2022-08-21T01:53:50;2.90;;;1.30;;
55270;SDS011;41132;47.162;9.470;2022-08-21T01:56:16;3.00;;;1.27;;
55270;SDS011;41132;47.162;9.470;2022-08-21T01:58:43;8.35;;;1.67;;
55270;SDS011;41132;47.162;9.470;2022-08-21T02:01:11;5.50;;;1.48;;
55270;SDS011;41132;47.162;9.470;2022-08-21T02:03:39;4.75;;;1.48;;
55270;SDS011;41132;47.162;9.470;2022-08-21T02:06:06;5.47;;;1.20;;
55270;SDS011;41132;47.162;9.470;2022-08-21T02:08:33;3.88;;;1.50;;
55270;SDS011;41132;47.162;9.470;2022-08-21T02:11:04;4.10;;;1.40;;
55270;SDS011;41132;47.162;9.470;2022-08-21T02:13:29;4.18;;;1.60;;
55270;SDS011;41132;47.162;9.470;2022-08-21T02:15:54;4.38;;;1.50;;
55270;SDS011;41132;47.162;9.470;2022-08-21T02:18:21;3.22;;;1.00;;
55270;SDS011;41132;47.162;9.470;2022-08-21T02:20:50;1.88;;;1.00;;
55270;SDS011;41132;47.162;9.470;2022-08-21T02:23:16;3.50;;;1.60;;
55270;SDS011;41132;47.162;9.470;2022-08-21T02:25:41;6.43;;;1.60;;
55270;SDS011;41132;47.162;9.470;2022-08-21T02:28:14;2.83;;;1.38;;
55270;SDS011;41132;47.162;9.470;2022-08-21T02:30:42;3.70;;;1.63;;
55270;SDS011;41132;47.162;9.470;2022-08-21T02:33:09;4.07;;;1.63;;
55270;SDS011;41132;47.162;9.470;2022-08-21T02:35:36;4.85;;;1.80;;
55270;SDS011;41132;47.162;9.470;2022-08-21T02:38:04;4.97;;;1.30;;
55270;SDS011;41132;47.162;9.470;2022-08-21T02:40:34;3.55;;;1.40;;
55270;SDS011;41132;47.162;9.470;2022-08-21T02:43:20;4.68;;;1.40;;
55270;SDS011;41132;47.162;9.470;2022-08-21T02:45:49;3.92;;;1.60;;
55270;SDS011;41132;47.162;9.470;2022-08-21T02:48:17;4.78;;;1.50;;
55270;SDS011;41132;47.162;9.470;2022-08-21T02:50:46;2.80;;;1.45;;
55270;SDS011;41132;47.162;9.470;2022-08-21T02:53:14;2.83;;;1.30;;
55270;SDS011;41132;47.162;9.470;2022-08-21T02:55:41;5.43;;;1.58;;
55270;SDS011;41132;47.162;9.470;2022-08-21T02:58:10;5.13;;;1.40;;
55270;SDS011;41132;47.162;9.470;2022-08-21T03:00:37;2.90;;;1.40;;
55270;SDS011;41132;47.162;9.470;2022-08-21T03:03:06;4.68;;;1.70;;
55270;SDS011;41132;47.162;9.470;2022-08-21T03:05:34;3.42;;;1.60;;
55270;SDS011;41132;47.162;9.470;2022-08-21T03:08:02;11.02;;;1.50;;
55270;SDS011;41132;47.162;9.470;2022-08-21T03:10:30;3.13;;;1.30;;
55270;SDS011;41132;47.162;9.470;2022-08-21T03:12:56;4.80;;;1.48;;
55270;SDS011;41132;47.162;9.470;2022-08-21T03:15:22;3.80;;;1.38;;
55270;SDS011;41132;47.162;9.470;2022-08-21T03:17:49;3.80;;;1.30;;
55270;SDS011;41132;47.162;9.470;2022-08-21T03:20:20;3.75;;;1.75;;
55270;SDS011;41132;47.162;9.470;2022-08-21T03:22:50;3.55;;;1.40;;
55270;SDS011;41132;47.162;9.470;2022-08-21T03:25:19;3.28;;;1.48;;
55270;SDS011;41132;47.162;9.470;2022-08-21T03:27:46;2.72;;;1.40;;
55270;SDS011;41132;47.162;9.470;2022-08-21T03:30:15;3.85;;;1.73;;
55270;SDS011;41132;47.162;9.470;2022-08-21T03:32:45;2.65;;;1.30;;
55270;SDS011;41132;47.162;9.470;2022-08-21T03:35:15;2.92;;;1.42;;
55270;SDS011;41132;47.162;9.470;2022-08-21T03:37:46;2.53;;;1.17;;
55270;SDS011;41132;47.162;9.470;2022-08-21T03:40:23;4.05;;;1.50;;
55270;SDS011;41132;47.162;9.470;2022-08-21T03:42:57;3.75;;;1.30;;
55270;SDS011;41132;47.162;9.470;2022-08-21T03:45:27;3.78;;;1.30;;
55270;SDS011;41132;47.162;9.470;2022-08-21T03:47:58;3.67;;;1.60;;
55270;SDS011;41132;47.162;9.470;2022-08-21T03:50:51;2.72;;;1.30;;
55270;SDS011;41132;47.162;9.470;2022-08-21T03:53:27;7.65;;;1.60;;
55270;SDS011;41132;47.162;9.470;2022-08-21T03:55:54;3.00;;;1.35;;
55270;SDS011;41132;47.162;9.470;2022-08-21T03:58:23;4.72;;;1.48;;
55270;SDS011;41132;47.162;9.470;2022-08-21T04:00:53;3.35;;;1.50;;
55270;SDS011;41132;47.162;9.470;2022-08-21T04:03:21;3.45;;;1.50;;
55270;SDS011;41132;47.162;9.470;2022-08-21T04:05:49;4.93;;;1.70;;
55270;SDS011;41132;47.162;9.470;2022-08-21T04:08:18;6.53;;;1.50;;
55270;SDS011;41132;47.162;9.470;2022-08-21T04:10:46;4.22;;;1.60;;
55270;SDS011;41132;47.162;9.470;2022-08-21T04:13:16;4.97;;;1.55;;
55270;SDS011;41132;47.162;9.470;2022-08-21T04:15:47;5.50;;;1.50;;
55270;SDS011;41132;47.162;9.470;2022-08-21T04:18:26;7.07;;;1.75;;
55270;SDS011;41132;47.162;9.470;2022-08-21T04:21:35;5.55;;;1.55;;
55270;SDS011;41132;47.162;9.470;2022-08-21T04:24:26;3.25;;;1.48;;
55270;SDS011;41132;47.162;9.470;2022-08-21T04:26:56;6.00;;;1.35;;
55270;SDS011;41132;47.162;9.470;2022-08-21T04:29:27;2.40;;;1.20;;
55270;SDS011;41132;47.162;9.470;2022-08-21T04:31:54;2.28;;;1.02;;
55270;SDS011;41132;47.162;9.470;2022-08-21T04:34:20;2.65;;;1.17;;
55270;SDS011;41132;47.162;9.470;2022-08-21T04:36:46;4.15;;;1.70;;
55270;SDS011;41132;47.162;9.470;2022-08-21T04:39:15;7.30;;;1.45;;
55270;SDS011;41132;47.162;9.470;2022-08-21T04:42:27;3.55;;;1.35;;
55270;SDS011;41132;47.162;9.470;2022-08-21T04:45:03;3.15;;;1.20;;
55270;SDS011;41132;47.162;9.470;2022-08-21T04:47:32;6.22;;;1.52;;
55270;SDS011;41132;47.162;9.470;2022-08-21T04:49:59;10.95;;;1.67;;
55270;SDS011;41132;47.162;9.470;2022-08-21T04:52:25;7.72;;;1.45;;
55270;SDS011;41132;47.162;9.470;2022-08-21T04:55:03;2.97;;;1.33;;
55270;SDS011;41132;47.162;9.470;2022-08-21T04:58:00;11.55;;;1.77;;
55270;SDS011;41132;47.162;9.470;2022-08-21T05:00:44;3.92;;;1.63;;
55270;SDS011;41132;47.162;9.470;2022-08-21T05:03:16;4.90;;;1.30;;
55270;SDS011;41132;47.162;9.470;2022-08-21T05:05:57;2.88;;;1.10;;
55270;SDS011;41132;47.162;9.470;2022-08-21T05:08:50;2.63;;;1.30;;
55270;SDS011;41132;47.162;9.470;2022-08-21T05:11:32;3.17;;;1.30;;
55270;SDS011;41132;47.162;9.470;2022-08-21T05:14:12;4.63;;;1.83;;
55270;SDS011;41132;47.162;9.470;2022-08-21T05:16:47;2.30;;;1.17;;
55270;SDS011;41132;47.162;9.470;2022-08-21T05:19:40;2.28;;;1.23;;
55270;SDS011;41132;47.162;9.470;2022-08-21T05:22:18;2.88;;;1.20;;
55270;SDS011;41132;47.162;9.470;2022-08-21T05:24:49;3.25;;;1.38;;
55270;SDS011;41132;47.162;9.470;2022-08-21T05:27:22;5.03;;;1.50;;
55270;SDS011;41132;47.162;9.470;2022-08-21T05:29:49;3.88;;;1.10;;
55270;SDS011;41132;47.162;9.470;2022-08-21T05:32:25;3.38;;;1.42;;
55270;SDS011;41132;47.162;9.470;2022-08-21T05:35:01;2.80;;;1.50;;
55270;SDS011;41132;47.162;9.470;2022-08-21T05:37:54;2.85;;;1.30;;
55270;SDS011;41132;47.162;9.470;2022-08-21T05:40:29;4.63;;;1.52;;
55270;SDS011;41132;47.162;9.470;2022-08-21T05:43:03;3.45;;;1.70;;
55270;SDS011;41132;47.162;9.470;2022-08-21T05:45:51;3.50;;;1.50;;
55270;SDS011;41132;47.162;9.470;2022-08-21T05:48:47;2.97;;;1.40;;
55270;SDS011;41132;47.162;9.470;2022-08-21T05:51:41;2.90;;;1.38;;
55270;SDS011;41132;47.162;9.470;2022-08-21T05:54:23;3.88;;;1.55;;
55270;SDS011;41132;47.162;9.470;2022-08-21T05:56:56;3.13;;;1.50;;
55270;SDS011;41132;47.162;9.470;2022-08-21T05:59:38;3.97;;;1.35;;
55270;SDS011;41132;47.162;9.470;2022-08-21T06:02:18;3.20;;;1.50;;
55270;SDS011;41132;47.162;9.470;2022-08-21T06:05:13;4.90;;;1.63;;
55270;SDS011;41132;47.162;9.470;2022-08-21T06:08:14;3.85;;;1.50;;
55270;SDS011;41132;47.162;9.470;2022-08-21T06:11:08;4.20;;;2.10;;
55270;SDS011;41132;47.162;9.470;2022-08-21T06:14:08;3.95;;;2.00;;
55270;SDS011;41132;47.162;9.470;2022-08-21T06:16:48;3.70;;;1.88;;
55270;SDS011;41132;47.162;9.470;2022-08-21T06:19:30;7.28;;;1.73;;
55270;SDS011;41132;47.162;9.470;2022-08-21T06:22:02;3.42;;;1.50;;
55270;SDS011;41132;47.162;9.470;2022-08-21T06:24:34;3.40;;;1.50;;
55270;SDS011;41132;47.162;9.470;2022-08-21T06:27:51;4.25;;;1.70;;
55270;SDS011;41132;47.162;9.470;2022-08-21T06:30:21;3.70;;;1.60;;
55270;SDS011;41132;47.162;9.470;2022-08-21T06:33:02;4.68;;;1.90;;
55270;SDS011;41132;47.162;9.470;2022-08-21T06:35:38;3.13;;;1.55;;
55270;SDS011;41132;47.162;9.470;2022-08-21T06:38:13;3.53;;;1.50;;
55270;SDS011;41132;47.162;9.470;2022-08-21T06:41:13;4.05;;;1.52;;
55270;SDS011;41132;47.162;9.470;2022-08-21T06:44:05;2.78;;;1.35;;
55270;SDS011;41132;47.162;9.470;2022-08-21T06:47:13;3.95;;;1.50;;
55270;SDS011;41132;47.162;9.470;2022-08-21T06:49:44;3.22;;;1.40;;
55270;SDS011;41132;47.162;9.470;2022-08-21T06:52:13;4.50;;;1.30;;
55270;SDS011;41132;47.162;9.470;2022-08-21T06:54:44;3.75;;;1.50;;
55270;SDS011;41132;47.162;9.470;2022-08-21T06:57:20;2.00;;;1.15;;
55270;SDS011;41132;47.162;9.470;2022-08-21T06:59:47;3.22;;;1.38;;
55270;SDS011;41132;47.162;9.470;2022-08-21T07:02:14;3.22;;;1.20;;
55270;SDS011;41132;47.162;9.470;2022-08-21T07:04:40;3.97;;;1.40;;
55270;SDS011;41132;47.162;9.470;2022-08-21T07:07:05;4.35;;;1.30;;
55270;SDS011;41132;47.162;9.470;2022-08-21T07:09:30;4.18;;;1.50;;
55270;SDS011;41132;47.162;9.470;2022-08-21T07:11:56;4.40;;;1.40;;
55270;SDS011;41132;47.162;9.470;2022-08-21T07:14:23;3.03;;;1.30;;
55270;SDS011;41132;47.162;9.470;2022-08-21T07:16:49;3.65;;;1.27;;
55270;SDS011;41132;47.162;9.470;2022-08-21T07:19:15;4.72;;;1.30;;
55270;SDS011;41132;47.162;9.470;2022-08-21T07:21:41;4.85;;;1.50;;
55270;SDS011;41132;47.162;9.470;2022-08-21T07:24:06;3.10;;;1.55;;
55270;SDS011;41132;47.162;9.470;2022-08-21T07:26:32;3.60;;;1.33;;
55270;SDS011;41132;47.162;9.470;2022-08-21T07:28:57;3.45;;;1.25;;
55270;SDS011;41132;47.162;9.470;2022-08-21T07:31:24;5.20;;;1.25;;
55270;SDS011;41132;47.162;9.470;2022-08-21T07:33:50;2.70;;;1.38;;
55270;SDS011;41132;47.162;9.470;2022-08-21T07:36:16;2.45;;;1.20;;
55270;SDS011;41132;47.162;9.470;2022-08-21T07:38:42;2.65;;;1.25;;
55270;SDS011;41132;47.162;9.470;2022-08-21T07:41:22;2.83;;;1.20;;
55270;SDS011;41132;47.162;9.470;2022-08-21T07:43:49;2.33;;;1.15;;
55270;SDS011;41132;47.162;9.470;2022-08-21T07:46:14;2.85;;;1.27;;
55270;SDS011;41132;47.162;9.470;2022-08-21T07:48:40;2.55;;;1.30;;
55270;SDS011;41132;47.162;9.470;2022-08-21T07:51:07;2.42;;;1.13;;
55270;SDS011;41132;47.162;9.470;2022-08-21T07:53:35;2.60;;;1.20;;
55270;SDS011;41132;47.162;9.470;2022-08-21T07:56:02;6.30;;;1.30;;
55270;SDS011;41132;47.162;9.470;2022-08-21T07:58:29;2.63;;;1.30;;
55270;SDS011;41132;47.162;9.470;2022-08-21T08:00:55;7.10;;;1.50;;
55270;SDS011;41132;47.162;9.470;2022-08-21T08:03:20;2.83;;;1.30;;
55270;SDS011;41132;47.162;9.470;2022-08-21T08:05:46;4.82;;;1.35;;
55270;SDS011;41132;47.162;9.470;2022-08-21T08:08:11;4.13;;;1.48;;
55270;SDS011;41132;47.162;9.470;2022-08-21T08:10:37;3.30;;;1.40;;
55270;SDS011;41132;47.162;9.470;2022-08-21T08:13:03;2.92;;;1.35;;
55270;SDS011;41132;47.162;9.470;2022-08-21T08:15:29;5.68;;;1.33;;
55270;SDS011;41132;47.162;9.470;2022-08-21T08:17:55;3.78;;;1.20;;
55270;SDS011;41132;47.162;9.470;2022-08-21T08:20:22;2.20;;;1.15;;
55270;SDS011;41132;47.162;9.470;2022-08-21T08:22:50;3.17;;;1.42;;
55270;SDS011;41132;47.162;9.470;2022-08-21T08:25:16;3.63;;;1.27;;
55270;SDS011;41132;47.162;9.470;2022-08-21T08:27:42;4.25;;;1.45;;
55270;SDS011;41132;47.162;9.470;2022-08-21T08:30:08;2.72;;;1.38;;
55270;SDS011;41132;47.162;9.470;2022-08-21T08:32:35;4.43;;;1.40;;
55270;SDS011;41132;47.162;9.470;2022-08-21T08:35:01;3.75;;;1.67;;
55270;SDS011;41132;47.162;9.470;2022-08-21T08:37:28;3.17;;;1.50;;
55270;SDS011;41132;47.162;9.470;2022-08-21T08:39:53;2.88;;;1.50;;
55270;SDS011;41132;47.162;9.470;2022-08-21T08:42:21;3.78;;;1.70;;
55270;SDS011;41132;47.162;9.470;2022-08-21T08:44:55;3.50;;;1.50;;
55270;SDS011;41132;47.162;9.470;2022-08-21T08:47:24;2.65;;;1.30;;
55270;SDS011;41132;47.162;9.470;2022-08-21T08:49:58;3.58;;;1.50;;
55270;SDS011;41132;47.162;9.470;2022-08-21T08:55:10;3.55;;;1.73;;
55270;SDS011;41132;47.162;9.470;2022-08-21T08:57:45;5.10;;;1.67;;
55270;SDS011;41132;47.162;9.470;2022-08-21T09:00:13;3.78;;;1.70;;
55270;SDS011;41132;47.162;9.470;2022-08-21T09:02:43;4.45;;;1.88;;
55270;SDS011;41132;47.162;9.470;2022-08-21T09:13:45;3.95;;;1.70;;
55270;SDS011;41132;47.162;9.470;2022-08-21T09:46:30;2.33;;;1.30;;
55270;SDS011;41132;47.162;9.470;2022-08-21T09:49:00;3.75;;;1.50;;
55270;SDS011;41132;47.162;9.470;2022-08-21T09:51:34;2.42;;;1.30;;
55270;SDS011;41132;47.162;9.470;2022-08-21T09:56:34;4.20;;;1.63;;
55270;SDS011;41132;47.162;9.470;2022-08-21T10:01:49;4.20;;;1.40;;
55270;SDS011;41132;47.162;9.470;2022-08-21T10:04:19;2.70;;;1.45;;
55270;SDS011;41132;47.162;9.470;2022-08-21T10:06:47;2.15;;;1.10;;
55270;SDS011;41132;47.162;9.470;2022-08-21T10:09:13;2.75;;;1.20;;
55270;SDS011;41132;47.162;9.470;2022-08-21T10:14:30;2.90;;;1.27;;
55270;SDS011;41132;47.162;9.470;2022-08-21T10:17:07;4.13;;;1.30;;
55270;SDS011;41132;47.162;9.470;2022-08-21T10:22:26;3.40;;;1.30;;
55270;SDS011;41132;47.162;9.470;2022-08-21T10:30:43;3.35;;;1.30;;
55270;SDS011;41132;47.162;9.470;2022-08-21T10:36:08;4.15;;;1.40;;
55270;SDS011;41132;47.162;9.470;2022-08-21T10:44:35;2.90;;;1.17;;
55270;SDS011;41132;47.162;9.470;2022-08-21T10:50:11;1.35;;;1.02;;
55270;SDS011;41132;47.162;9.470;2022-08-21T10:52:54;2.13;;;1.10;;
55270;SDS011;41132;47.162;9.470;2022-08-21T10:55:22;2.35;;;1.10;;
55270;SDS011;41132;47.162;9.470;2022-08-21T10:58:01;3.63;;;1.30;;
55270;SDS011;41132;47.162;9.470;2022-08-21T11:00:49;2.67;;;1.20;;
55270;SDS011;41132;47.162;9.470;2022-08-21T11:06:11;2.78;;;1.20;;
55270;SDS011;41132;47.162;9.470;2022-08-21T11:08:49;2.08;;;1.08;;
55270;SDS011;41132;47.162;9.470;2022-08-21T11:14:00;2.15;;;1.08;;
55270;SDS011;41132;47.162;9.470;2022-08-21T11:19:09;1.63;;;0.80;;
55270;SDS011;41132;47.162;9.470;2022-08-21T11:21:43;2.70;;;1.15;;
55270;SDS011;41132;47.162;9.470;2022-08-21T11:26:43;2.00;;;1.10;;
55270;SDS011;41132;47.162;9.470;2022-08-21T11:29:38;0.98;;;0.82;;
55270;SDS011;41132;47.162;9.470;2022-08-21T11:32:15;1.77;;;1.00;;
55270;SDS011;41132;47.162;9.470;2022-08-21T11:50:48;2.30;;;1.00;;
55270;SDS011;41132;47.162;9.470;2022-08-21T11:53:17;3.33;;;1.02;;
55270;SDS011;41132;47.162;9.470;2022-08-21T11:58:41;1.95;;;0.98;;
55270;SDS011;41132;47.162;9.470;2022-08-21T12:01:12;1.92;;;0.90;;
55270;SDS011;41132;47.162;9.470;2022-08-21T12:03:57;2.33;;;1.10;;
55270;SDS011;41132;47.162;9.470;2022-08-21T12:06:34;3.03;;;1.47;;
55270;SDS011;41132;47.162;9.470;2022-08-21T12:09:30;2.00;;;0.90;;
55270;SDS011;41132;47.162;9.470;2022-08-21T12:12:02;1.77;;;1.00;;
55270;SDS011;41132;47.162;9.470;2022-08-21T12:17:21;2.88;;;1.05;;
55270;SDS011;41132;47.162;9.470;2022-08-21T12:19:58;2.55;;;1.10;;
55270;SDS011;41132;47.162;9.470;2022-08-21T12:25:20;2.10;;;1.10;;
55270;SDS011;41132;47.162;9.470;2022-08-21T12:27:49;2.22;;;1.10;;
55270;SDS011;41132;47.162;9.470;2022-08-21T12:30:22;1.70;;;0.90;;
55270;SDS011;41132;47.162;9.470;2022-08-21T12:33:02;2.00;;;1.00;;
55270;SDS011;41132;47.162;9.470;2022-08-21T12:35:36;2.05;;;1.02;;
55270;SDS011;41132;47.162;9.470;2022-08-21T12:38:18;1.67;;;0.93;;
55270;SDS011;41132;47.162;9.470;2022-08-21T12:40:49;2.42;;;0.98;;
55270;SDS011;41132;47.162;9.470;2022-08-21T12:45:53;2.33;;;1.20;;
55270;SDS011;41132;47.162;9.470;2022-08-21T12:48:20;4.15;;;1.23;;
55270;SDS011;41132;47.162;9.470;2022-08-21T12:51:14;1.17;;;0.80;;
55270;SDS011;41132;47.162;9.470;2022-08-21T12:53:52;2.55;;;1.00;;
55270;SDS011;41132;47.162;9.470;2022-08-21T12:56:20;1.85;;;0.77;;
55270;SDS011;41132;47.162;9.470;2022-08-21T12:58:49;2.63;;;1.08;;
55270;SDS011;41132;47.162;9.470;2022-08-21T13:03:45;1.98;;;0.93;;
55270;SDS011;41132;47.162;9.470;2022-08-21T13:06:15;3.55;;;1.42;;
55270;SDS011;41132;47.162;9.470;2022-08-21T13:08:43;1.83;;;1.00;;
55270;SDS011;41132;47.162;9.470;2022-08-21T13:11:11;1.30;;;1.00;;
55270;SDS011;41132;47.162;9.470;2022-08-21T13:13:41;3.08;;;0.90;;
55270;SDS011;41132;47.162;9.470;2022-08-21T13:16:07;1.52;;;0.90;;
55270;SDS011;41132;47.162;9.470;2022-08-21T13:18:34;1.95;;;0.98;;
55270;SDS011;41132;47.162;9.470;2022-08-21T13:21:05;1.08;;;0.75;;
55270;SDS011;41132;47.162;9.470;2022-08-21T13:23:35;4.75;;;1.10;;
55270;SDS011;41132;47.162;9.470;2022-08-21T13:26:00;1.55;;;0.90;;
55270;SDS011;41132;47.162;9.470;2022-08-21T13:28:34;2.72;;;0.90;;
55270;SDS011;41132;47.162;9.470;2022-08-21T13:31:02;1.23;;;0.75;;
55270;SDS011;41132;47.162;9.470;2022-08-21T13:33:33;1.95;;;0.90;;
55270;SDS011;41132;47.162;9.470;2022-08-21T13:38:25;2.03;;;0.90;;
55270;SDS011;41132;47.162;9.470;2022-08-21T13:40:55;1.10;;;0.80;;
55270;SDS011;41132;47.162;9.470;2022-08-21T13:43:28;1.42;;;0.80;;
55270;SDS011;41132;47.162;9.470;2022-08-21T13:45:57;1.75;;;1.00;;
55270;SDS011;41132;47.162;9.470;2022-08-21T13:48:25;2.35;;;1.10;;
55270;SDS011;41132;47.162;9.470;2022-08-21T13:50:52;1.90;;;0.95;;
55270;SDS011;41132;47.162;9.470;2022-08-21T13:53:27;2.25;;;1.00;;
55270;SDS011;41132;47.162;9.470;2022-08-21T13:55:56;2.17;;;1.00;;
55270;SDS011;41132;47.162;9.470;2022-08-21T13:58:27;1.63;;;1.08;;
55270;SDS011;41132;47.162;9.470;2022-08-21T14:00:55;2.47;;;1.15;;
55270;SDS011;41132;47.162;9.470;2022-08-21T14:03:35;2.13;;;1.10;;
55270;SDS011;41132;47.162;9.470;2022-08-21T14:06:20;2.30;;;1.08;;
55270;SDS011;41132;47.162;9.470;2022-08-21T14:08:48;5.35;;;1.05;;
55270;SDS011;41132;47.162;9.470;2022-08-21T14:11:16;2.13;;;1.05;;
55270;SDS011;41132;47.162;9.470;2022-08-21T14:14:02;2.20;;;1.02;;
55270;SDS011;41132;47.162;9.470;2022-08-21T14:16:46;2.47;;;1.10;;
55270;SDS011;41132;47.162;9.470;2022-08-21T14:19:23;2.90;;;1.20;;
55270;SDS011;41132;47.162;9.470;2022-08-21T14:21:51;2.25;;;1.02;;
55270;SDS011;41132;47.162;9.470;2022-08-21T14:26:52;3.20;;;0.98;;
55270;SDS011;41132;47.162;9.470;2022-08-21T14:29:20;2.72;;;1.15;;
55270;SDS011;41132;47.162;9.470;2022-08-21T14:31:53;2.42;;;1.00;;
55270;SDS011;41132;47.162;9.470;2022-08-21T14:34:21;1.88;;;1.10;;
55270;SDS011;41132;47.162;9.470;2022-08-21T14:36:53;1.38;;;1.00;;
55270;SDS011;41132;47.162;9.470;2022-08-21T14:39:19;2.53;;;1.10;;
55270;SDS011;41132;47.162;9.470;2022-08-21T14:41:45;3.38;;;1.20;;
55270;SDS011;41132;47.162;9.470;2022-08-21T14:44:13;2.13;;;0.95;;
55270;SDS011;41132;47.162;9.470;2022-08-21T14:46:39;1.42;;;0.90;;
55270;SDS011;41132;47.162;9.470;2022-08-21T14:49:05;6.00;;;1.15;;
55270;SDS011;41132;47.162;9.470;2022-08-21T14:51:30;1.98;;;1.08;;
55270;SDS011;41132;47.162;9.470;2022-08-21T14:53:55;1.50;;;0.85;;
55270;SDS011;41132;47.162;9.470;2022-08-21T14:56:21;2.13;;;1.00;;
55270;SDS011;41132;47.162;9.470;2022-08-21T14:58:48;1.75;;;1.00;;
55270;SDS011;41132;47.162;9.470;2022-08-21T15:01:16;2.40;;;1.05;;
55270;SDS011;41132;47.162;9.470;2022-08-21T15:03:44;2.72;;;1.02;;
55270;SDS011;41132;47.162;9.470;2022-08-21T15:06:10;1.83;;;0.88;;
55270;SDS011;41132;47.162;9.470;2022-08-21T15:08:36;1.17;;;0.75;;
55270;SDS011;41132;47.162;9.470;2022-08-21T15:11:03;1.77;;;0.95;;
55270;SDS011;41132;47.162;9.470;2022-08-21T15:13:31;2.13;;;1.10;;
55270;SDS011;41132;47.162;9.470;2022-08-21T15:15:58;1.85;;;0.93;;
55270;SDS011;41132;47.162;9.470;2022-08-21T15:18:25;1.77;;;0.93;;
55270;SDS011;41132;47.162;9.470;2022-08-21T15:20:51;3.33;;;1.15;;
55270;SDS011;41132;47.162;9.470;2022-08-21T15:23:17;2.63;;;1.15;;
55270;SDS011;41132;47.162;9.470;2022-08-21T15:25:44;2.40;;;1.00;;
55270;SDS011;41132;47.162;9.470;2022-08-21T15:28:12;1.60;;;1.00;;
55270;SDS011;41132;47.162;9.470;2022-08-21T15:30:38;2.08;;;0.80;;
55270;SDS011;41132;47.162;9.470;2022-08-21T15:33:05;2.28;;;0.80;;
55270;SDS011;41132;47.162;9.470;2022-08-21T15:35:31;0.73;;;0.70;;
55270;SDS011;41132;47.162;9.470;2022-08-21T15:37:57;1.23;;;0.80;;
55270;SDS011;41132;47.162;9.470;2022-08-21T15:40:23;2.97;;;1.00;;
55270;SDS011;41132;47.162;9.470;2022-08-21T15:42:50;1.63;;;0.98;;
55270;SDS011;41132;47.162;9.470;2022-08-21T15:45:19;3.63;;;1.20;;
55270;SDS011;41132;47.162;9.470;2022-08-21T15:47:45;1.75;;;0.98;;
55270;SDS011;41132;47.162;9.470;2022-08-21T15:50:12;2.50;;;0.93;;
55270;SDS011;41132;47.162;9.470;2022-08-21T15:52:38;1.60;;;1.00;;
55270;SDS011;41132;47.162;9.470;2022-08-21T15:55:04;2.20;;;0.90;;
55270;SDS011;41132;47.162;9.470;2022-08-21T15:57:31;1.95;;;0.93;;
55270;SDS011;41132;47.162;9.470;2022-08-21T15:59:58;1.83;;;0.77;;
55270;SDS011;41132;47.162;9.470;2022-08-21T16:02:34;1.80;;;0.90;;
55270;SDS011;41132;47.162;9.470;2022-08-21T16:05:01;2.13;;;1.02;;
55270;SDS011;41132;47.162;9.470;2022-08-21T16:07:26;0.90;;;0.77;;
55270;SDS011;41132;47.162;9.470;2022-08-21T16:09:51;1.20;;;0.80;;
55270;SDS011;41132;47.162;9.470;2022-08-21T16:12:27;1.15;;;0.90;;
55270;SDS011;41132;47.162;9.470;2022-08-21T16:14:56;1.08;;;0.82;;
55270;SDS011;41132;47.162;9.470;2022-08-21T16:17:24;1.42;;;0.90;;
55270;SDS011;41132;47.162;9.470;2022-08-21T16:19:53;1.60;;;0.90;;
55270;SDS011;41132;47.162;9.470;2022-08-21T16:22:19;1.10;;;0.80;;
55270;SDS011;41132;47.162;9.470;2022-08-21T16:24:44;1.40;;;1.00;;
55270;SDS011;41132;47.162;9.470;2022-08-21T16:27:10;1.73;;;1.00;;
55270;SDS011;41132;47.162;9.470;2022-08-21T16:29:36;1.20;;;0.80;;
55270;SDS011;41132;47.162;9.470;2022-08-21T16:32:04;1.45;;;0.93;;
55270;SDS011;41132;47.162;9.470;2022-08-21T16:34:30;2.83;;;0.90;;
55270;SDS011;41132;47.162;9.470;2022-08-21T16:36:55;1.17;;;0.82;;
55270;SDS011;41132;47.162;9.470;2022-08-21T16:39:21;1.30;;;0.90;;
55270;SDS011;41132;47.162;9.470;2022-08-21T16:41:47;1.30;;;0.77;;
55270;SDS011;41132;47.162;9.470;2022-08-21T16:44:14;1.63;;;0.88;;
55270;SDS011;41132;47.162;9.470;2022-08-21T16:46:40;0.80;;;0.73;;
55270;SDS011;41132;47.162;9.470;2022-08-21T16:49:07;1.17;;;0.70;;
55270;SDS011;41132;47.162;9.470;2022-08-21T16:51:34;1.05;;;0.70;;
55270;SDS011;41132;47.162;9.470;2022-08-21T16:54:00;1.92;;;0.90;;
55270;SDS011;41132;47.162;9.470;2022-08-21T16:56:26;1.42;;;0.90;;
55270;SDS011;41132;47.162;9.470;2022-08-21T16:58:53;1.48;;;0.80;;
55270;SDS011;41132;47.162;9.470;2022-08-21T17:01:21;1.10;;;0.70;;
55270;SDS011;41132;47.162;9.470;2022-08-21T17:03:50;1.15;;;0.80;;
55270;SDS011;41132;47.162;9.470;2022-08-21T17:06:16;2.00;;;0.90;;
55270;SDS011;41132;47.162;9.470;2022-08-21T17:08:42;1.58;;;0.90;;